Time;durP1;ratioP1;P1;durP2;ratioP2;P2;SDS_P1;SDS_P2;PMS_P1;PMS_P2;Temp;Humidity;BMP_temperature;BMP_pressure;BME280_temperature;BME280_humidity;BME280_pressure;Samples;Min_cycle;Max_cycle;Signal;HPM_P1;HPM_P2
2023/10/11 00:01:37;;;;;;;;;;;;;;;16.79;100.00;101388.44;5045742;28;19956;-75
2023/10/11 00:04:03;;;;;;;;;;;;;;;16.76;100.00;101380.59;5030997;28;20024;-74
2023/10/11 00:06:28;;;;;;;;;;;;;;;16.71;100.00;101381.03;5022930;28;20374;-74
2023/10/11 00:08:54;;;;;;;;;;;;;;;16.74;100.00;101380.75;5020613;28;19972;-75
2023/10/11 00:11:24;;;;;;;;;;;;;;;16.68;100.00;101385.91;5021395;28;20398;-74
2023/10/11 00:13:49;;;;;;;;;;;;;;;16.68;100.00;101375.91;5043634;28;19928;-76
2023/10/11 00:16:17;;;;;;;;;;;;;;;16.65;100.00;101378.91;5025592;28;19933;-74
2023/10/11 00:18:43;;;;;;;;;;;;;;;16.61;100.00;101380.19;5014040;28;19920;-76
2023/10/11 00:21:12;;;;;;;;;;;;;;;16.58;100.00;101378.66;5026629;28;19981;-74
2023/10/11 00:23:38;;;;;;;;;;;;;;;16.58;100.00;101373.22;5010568;28;20494;-77
2023/10/11 00:26:06;;;;;;;;;;;;;;;16.56;100.00;101379.78;5026538;28;20301;-75
2023/10/11 00:28:32;;;;;;;;;;;;;;;16.55;100.00;101384.34;5027489;28;19936;-73
2023/10/11 00:30:59;;;;;;;;;;;;;;;16.56;100.00;101379.78;5031106;28;20004;-74
2023/10/11 00:33:25;;;;;;;;;;;;;;;16.47;100.00;101374.25;5015576;28;19947;-74
2023/10/11 00:35:51;;;;;;;;;;;;;;;16.51;100.00;101376.66;5014026;28;19968;-75
2023/10/11 00:38:18;;;;;;;;;;;;;;;16.49;100.00;101374.97;5036372;28;20355;-73
2023/10/11 00:40:44;;;;;;;;;;;;;;;16.48;100.00;101370.53;5036693;28;19931;-75
2023/10/11 00:43:12;;;;;;;;;;;;;;;16.42;100.00;101378.41;5038998;28;19939;-74
2023/10/11 00:45:37;;;;;;;;;;;;;;;16.43;100.00;101374.66;5047612;28;19928;-77
2023/10/11 00:48:07;;;;;;;;;;;;;;;16.43;100.00;101367.41;5026788;28;19928;-72
2023/10/11 00:50:32;;;;;;;;;;;;;;;16.45;100.00;101361.81;5047519;28;19956;-73
2023/10/11 00:52:58;;;;;;;;;;;;;;;16.32;100.00;101362.13;5031080;28;20007;-75
2023/10/11 00:55:23;;;;;;;;;;;;;;;16.29;100.00;101352.44;5036940;28;19916;-75
2023/10/11 00:57:49;;;;;;;;;;;;;;;16.34;100.00;101355.59;5054245;28;20348;-74
2023/10/11 01:00:16;;;;;;;;;;;;;;;16.28;100.00;101356.16;5052442;28;20334;-76
2023/10/11 01:02:41;;;;;;;;;;;;;;;16.33;100.00;101355.72;5027926;28;19939;-75
2023/10/11 01:05:07;;;;;;;;;;;;;;;16.25;100.00;101350.19;5052451;28;19920;-73
2023/10/11 01:07:32;;;;;;;;;;;;;;;16.26;100.00;101357.31;5049519;28;19935;-75
2023/10/11 01:09:57;;;;;;;;;;;;;;;16.24;100.00;101357.44;5045062;28;19921;-73
2023/10/11 01:12:22;;;;;;;;;;;;;;;16.20;100.00;101358.72;5046426;28;19924;-75
2023/10/11 01:14:57;;;;;;;;;;;;;;;16.18;100.00;101356.16;5050281;28;20959;-75
2023/10/11 01:17:23;;;;;;;;;;;;;;;16.08;100.00;101358.00;5049248;28;19935;-76
2023/10/11 01:19:51;;;;;;;;;;;;;;;16.14;100.00;101360.16;5046056;28;19924;-73
2023/10/11 01:22:17;;;;;;;;;;;;;;;16.04;100.00;101349.34;5026820;28;20481;-73
2023/10/11 01:24:42;;;;;;;;;;;;;;;16.11;100.00;101352.31;5045418;28;20019;-74
2023/10/11 01:27:07;;;;;;;;;;;;;;;16.11;100.00;101346.06;5044078;28;19921;-73
2023/10/11 01:29:32;;;;;;;;;;;;;;;16.09;100.00;101351.59;5048629;28;19950;-74
2023/10/11 01:31:58;;;;;;;;;;;;;;;16.06;100.00;101351.88;5043601;28;20011;-73
2023/10/11 01:34:27;;;;;;;;;;;;;;;15.98;100.00;101341.78;5033476;28;20026;-73
2023/10/11 01:36:52;;;;;;;;;;;;;;;16.00;100.00;101336.22;5048911;28;19924;-73
2023/10/11 01:39:21;;;;;;;;;;;;;;;15.96;100.00;101343.78;5031409;28;20231;-75
2023/10/11 01:41:46;;;;;;;;;;;;;;;15.95;100.00;101331.22;5018828;28;19943;-75
2023/10/11 01:44:11;;;;;;;;;;;;;;;15.96;100.00;101338.34;5032459;28;20537;-72
2023/10/11 01:46:39;;;;;;;;;;;;;;;15.86;100.00;101335.66;5051413;28;19928;-74
2023/10/11 01:49:05;;;;;;;;;;;;;;;15.84;100.00;101331.34;5032136;28;19924;-74
2023/10/11 01:51:31;;;;;;;;;;;;;;;15.83;100.00;101326.94;5031494;28;19924;-73
2023/10/11 01:53:57;;;;;;;;;;;;;;;15.86;100.00;101322.13;5019935;28;19920;-74
2023/10/11 01:56:23;;;;;;;;;;;;;;;15.84;100.00;101324.06;5033743;28;20153;-73
2023/10/11 01:58:49;;;;;;;;;;;;;;;15.84;100.00;101318.66;5018889;28;20347;-73
2023/10/11 02:01:21;;;;;;;;;;;;;;;15.73;100.00;101313.41;5036316;28;20363;-76
2023/10/11 02:03:56;;;;;;;;;;;;;;;15.72;100.00;101314.41;5038590;28;20310;-72
2023/10/11 02:06:22;;;;;;;;;;;;;;;15.65;100.00;101311.38;5042622;28;20305;-74
2023/10/11 02:08:47;;;;;;;;;;;;;;;15.61;100.00;101307.28;5025921;28;20375;-73
2023/10/11 02:11:15;;;;;;;;;;;;;;;15.58;100.00;101311.09;5024189;28;19959;-73
2023/10/11 02:13:44;;;;;;;;;;;;;;;15.57;100.00;101303.97;5023255;28;20078;-73
2023/10/11 02:16:14;;;;;;;;;;;;;;;15.59;100.00;101312.81;5026114;28;19927;-74
2023/10/11 02:18:40;;;;;;;;;;;;;;;15.55;100.00;101307.81;5024425;28;19959;-74
2023/10/11 02:21:06;;;;;;;;;;;;;;;15.52;100.00;101305.41;5047298;28;20432;-75
2023/10/11 02:23:37;;;;;;;;;;;;;;;15.54;100.00;101300.69;5029526;28;20396;-74
2023/10/11 02:26:02;;;;;;;;;;;;;;;15.52;100.00;101295.41;5046336;28;19924;-75
2023/10/11 02:28:28;;;;;;;;;;;;;;;15.42;100.00;101303.53;5018119;28;19932;-74
2023/10/11 02:30:55;;;;;;;;;;;;;;;15.53;100.00;101289.00;5031539;28;19928;-77
2023/10/11 02:33:20;;;;;;;;;;;;;;;15.53;100.00;101289.00;5034326;28;20038;-74
2023/10/11 02:35:56;;;;;;;;;;;;;;;15.54;100.00;101287.16;5034561;28;20708;-75
2023/10/11 02:38:22;;;;;;;;;;;;;;;15.43;100.00;101293.56;5049315;28;20371;-73
2023/10/11 02:40:55;;;;;;;;;;;;;;;15.40;100.00;101286.56;5032180;28;19942;-75
2023/10/11 02:43:21;;;;;;;;;;;;;;;15.28;100.00;101296.66;5030506;28;19928;-74
2023/10/11 02:45:46;;;;;;;;;;;;;;;15.26;100.00;101295.94;5050155;28;19917;-75
2023/10/11 02:48:11;;;;;;;;;;;;;;;15.34;100.00;101295.28;5049996;28;19925;-74
2023/10/11 02:50:37;;;;;;;;;;;;;;;15.32;100.00;101297.25;5048690;28;19975;-73
2023/10/11 02:53:12;;;;;;;;;;;;;;;15.26;100.00;101297.81;5049837;28;20007;-74
2023/10/11 02:55:38;;;;;;;;;;;;;;;15.24;100.00;101292.53;5025619;28;19927;-72
2023/10/11 02:58:07;;;;;;;;;;;;;;;15.17;100.00;101295.94;5048466;28;20153;-75
2023/10/11 03:00:43;;;;;;;;;;;;;;;15.15;100.00;101290.66;5027532;28;19924;-73
2023/10/11 03:03:11;;;;;;;;;;;;;;;15.12;100.00;101293.66;5047520;28;19947;-72
2023/10/11 03:05:37;;;;;;;;;;;;;;;15.10;100.00;101296.47;5027959;28;19920;-73
2023/10/11 03:08:16;;;;;;;;;;;;;;;15.07;100.00;101285.97;5048501;28;20382;-74
2023/10/11 03:10:45;;;;;;;;;;;;;;;15.06;100.00;101286.06;5030971;28;19928;-75
2023/10/11 03:13:19;;;;;;;;;;;;;;;15.07;100.00;101285.09;5052062;28;19931;-74
2023/10/11 03:15:54;;;;;;;;;;;;;;;14.97;100.00;101288.59;5018705;28;20322;-72
2023/10/11 03:18:20;;;;;;;;;;;;;;;14.92;100.00;101284.63;5020332;28;19925;-72
2023/10/11 03:20:45;;;;;;;;;;;;;;;14.90;100.00;101286.59;5049013;28;20386;-75
2023/10/11 03:23:13;;;;;;;;;;;;;;;14.84;100.00;101285.31;5029639;28;20390;-72
2023/10/11 03:25:38;;;;;;;;;;;;;;;14.71;100.00;101274.72;5046471;28;19990;-74
2023/10/11 03:28:05;;;;;;;;;;;;;;;14.67;100.00;101282.22;5046298;28;19932;-73
2023/10/11 03:30:35;;;;;;;;;;;;;;;14.60;100.00;101282.88;5046348;28;20355;-74
2023/10/11 03:33:02;;;;;;;;;;;;;;;14.57;100.00;101280.47;5047396;28;19925;-75
2023/10/11 03:35:27;;;;;;;;;;;;;;;14.60;100.00;101280.19;5026597;28;19959;-72
2023/10/11 03:37:58;;;;;;;;;;;;;;;14.55;100.00;101280.59;5047657;28;20014;-74
2023/10/11 03:40:54;;;;;;;;;;;;;;;14.43;100.00;101284.38;5046248;28;20062;-73
2023/10/11 03:43:19;;;;;;;;;;;;;;;14.48;100.00;101285.69;5032141;28;19920;-73
2023/10/11 03:45:49;;;;;;;;;;;;;;;14.48;100.00;101283.00;5025462;28;20686;-73
2023/10/11 03:48:18;;;;;;;;;;;;;;;14.46;100.00;101279.56;5027198;28;19931;-74
2023/10/11 03:50:52;;;;;;;;;;;;;;;14.38;100.00;101272.13;5044811;28;19920;-73
2023/10/11 03:53:17;;;;;;;;;;;;;;;14.43;100.00;101271.72;5023538;28;19924;-77
2023/10/11 03:55:49;;;;;;;;;;;;;;;14.49;100.00;101273.03;5027712;28;19926;-74
2023/10/11 03:58:32;;;;;;;;;;;;;;;14.53;100.00;101267.22;5024955;28;22257;-74
2023/10/11 04:01:09;;;;;;;;;;;;;;;14.49;100.00;101264.91;5025817;28;19920;-73
2023/10/11 04:03:35;;;;;;;;;;;;;;;14.49;100.00;101262.22;5037621;28;19921;-73
2023/10/11 04:06:00;;;;;;;;;;;;;;;14.46;100.00;101263.34;5028154;28;19920;-75
2023/10/11 04:08:26;;;;;;;;;;;;;;;14.47;100.00;101261.50;5055001;28;20458;-77
2023/10/11 04:10:53;;;;;;;;;;;;;;;14.51;100.00;101262.94;5029168;28;19932;-75
2023/10/11 04:13:25;;;;;;;;;;;;;;;14.55;100.00;101267.09;5048856;28;21041;-72
2023/10/11 04:15:50;;;;;;;;;;;;;;;14.47;100.00;101259.66;5046771;28;19925;-74
2023/10/11 04:18:37;;;;;;;;;;;;;;;14.51;100.00;101257.53;5049369;28;19920;-75
2023/10/11 04:23:36;;;;;;;;;;;;;;;14.30;100.00;101239.53;5047060;28;19955;-75
2023/10/11 04:26:07;;;;;;;;;;;;;;;14.20;100.00;101238.59;5047426;28;20646;-73
2023/10/11 04:28:33;;;;;;;;;;;;;;;14.22;100.00;101245.59;5050842;28;19925;-74
2023/10/11 04:31:28;;;;;;;;;;;;;;;14.18;100.00;101243.28;5020074;28;20223;-75
2023/10/11 04:33:50;;;;;;;;;;;;;;;14.11;100.00;101242.97;5036071;28;20099;-73
2023/10/11 04:36:20;;;;;;;;;;;;;;;14.10;100.00;101249.34;5050398;28;19924;-74
2023/10/11 04:38:47;;;;;;;;;;;;;;;14.03;100.00;101249.03;5050302;28;20562;-75
2023/10/11 04:41:19;;;;;;;;;;;;;;;14.01;100.00;101250.16;5050141;28;19971;-75
2023/10/11 04:43:50;;;;;;;;;;;;;;;14.06;100.00;101247.91;5034274;28;19950;-73
2023/10/11 04:46:16;;;;;;;;;;;;;;;13.94;100.00;101245.28;5049841;28;20462;-72
2023/10/11 04:48:42;;;;;;;;;;;;;;;13.99;100.00;101250.28;5031384;28;20142;-75
2023/10/11 04:51:21;;;;;;;;;;;;;;;14.00;100.00;101253.84;5047656;28;20138;-75
2023/10/11 04:59:27;;;;;;;;;;;;;;;14.02;100.00;101260.81;5048352;28;19966;-74
2023/10/11 05:04:33;;;;;;;;;;;;;;;14.02;100.00;101268.91;5051210;28;19963;-77
2023/10/11 05:07:03;;;;;;;;;;;;;;;14.03;100.00;101272.50;5033335;28;19922;-73
2023/10/11 05:09:38;;;;;;;;;;;;;;;14.03;100.00;101275.19;5046817;28;20011;-73
2023/10/11 05:14:29;;;;;;;;;;;;;;;13.97;100.00;101273.00;5051044;28;19920;-73
2023/10/11 05:19:44;;;;;;;;;;;;;;;13.96;100.00;101269.44;5037701;28;19997;-74
2023/10/11 05:22:16;;;;;;;;;;;;;;;13.96;100.00;101272.13;5035347;28;20278;-75
2023/10/11 05:25:12;;;;;;;;;;;;;;;13.93;100.00;101272.41;5015946;28;19924;-75
2023/10/11 05:51:29;;;;;;;;;;;;;;;13.68;100.00;101290.66;5034946;28;19970;-74
2023/10/11 05:53:54;;;;;;;;;;;;;;;13.66;100.00;101284.53;5026136;28;19966;-74
2023/10/11 05:56:23;;;;;;;;;;;;;;;13.63;100.00;101296.47;5027270;28;19928;-73
2023/10/11 05:58:52;;;;;;;;;;;;;;;13.57;100.00;101291.56;5017191;28;19971;-73
2023/10/11 06:01:19;;;;;;;;;;;;;;;13.58;100.00;101287.06;5016396;28;19971;-72
2023/10/11 06:03:44;;;;;;;;;;;;;;;13.57;100.00;101288.03;5017372;28;19921;-75
2023/10/11 06:06:32;;;;;;;;;;;;;;;13.56;100.00;101289.00;5018303;28;20043;-74
2023/10/11 06:08:57;;;;;;;;;;;;;;;13.57;100.00;101291.56;5013985;28;20374;-72
2023/10/11 06:11:28;;;;;;;;;;;;;;;13.60;100.00;101293.19;5028636;28;19921;-75
2023/10/11 06:13:53;;;;;;;;;;;;;;;13.60;100.00;101288.63;5048330;28;20016;-75
2023/10/11 06:16:22;;;;;;;;;;;;;;;13.60;100.00;101283.22;5012896;28;20385;-75
2023/10/11 06:18:56;;;;;;;;;;;;;;;13.62;100.00;101285.81;5033888;28;19921;-73
2023/10/11 06:21:30;;;;;;;;;;;;;;;13.71;100.00;101276.94;5032426;28;20386;-76
2023/10/11 06:23:59;;;;;;;;;;;;;;;13.69;100.00;101278.06;5017699;28;19955;-73
2023/10/11 06:27:58;;;;;;;;;;;;;;;13.77;100.00;101278.28;5041036;28;20507;-72
2023/10/11 06:29:18;;;;;;;;;;;;;;;13.82;100.00;101280.56;5031948;28;19940;-72
2023/10/11 06:31:44;;;;;;;;;;;;;;;13.83;100.00;101277.72;5033532;28;20010;-74
2023/10/11 06:34:15;;;;;;;;;;;;;;;13.83;100.00;101277.72;5030804;28;19999;-73
2023/10/11 06:36:50;;;;;;;;;;;;;;;13.83;100.00;101275.03;5030203;28;19924;-74
2023/10/11 06:39:34;;;;;;;;;;;;;;;13.89;100.00;101277.22;5026040;28;20382;-72
2023/10/11 06:42:06;;;;;;;;;;;;;;;13.92;100.00;101286.88;5049589;28;20024;-73
2023/10/11 06:44:31;;;;;;;;;;;;;;;13.98;100.00;101291.75;5026410;28;20278;-72
2023/10/11 06:46:57;;;;;;;;;;;;;;;14.04;100.00;101279.56;5044966;28;19920;-72
2023/10/11 06:49:23;;;;;;;;;;;;;;;14.05;100.00;101292.97;5047863;28;20323;-73
2023/10/11 06:51:50;;;;;;;;;;;;;;;14.14;100.00;101303.97;5049079;28;19928;-72
2023/10/11 06:54:16;;;;;;;;;;;;;;;14.06;100.00;101283.88;5030796;28;19990;-73
2023/10/11 06:56:42;;;;;;;;;;;;;;;14.25;100.00;101293.09;5043503;28;19920;-74
2023/10/11 06:59:07;;;;;;;;;;;;;;;14.32;100.00;101294.28;5043222;28;20268;-73
2023/10/11 07:01:35;;;;;;;;;;;;;;;14.42;100.00;101296.19;5044763;28;19931;-73
2023/10/11 07:04:01;;;;;;;;;;;;;;;14.42;100.00;101291.63;5045122;28;19927;-73
2023/10/11 07:06:26;;;;;;;;;;;;;;;14.50;100.00;101293.66;5028112;28;19920;-72
2023/10/11 07:08:53;;;;;;;;;;;;;;;14.55;100.00;101291.41;5048773;28;20390;-73
2023/10/11 07:12:28;;;;;;;;;;;;;;;14.57;100.00;101284.03;5048224;28;19924;-74
2023/10/11 07:14:25;;;;;;;;;;;;;;;14.71;100.00;101307.16;5031424;28;19942;-73
2023/10/11 07:16:50;;;;;;;;;;;;;;;14.80;100.00;101305.47;5050274;28;19921;-74
2023/10/11 07:19:15;;;;;;;;;;;;;;;14.96;100.00;101318.50;5016022;28;20218;-72
2023/10/11 07:22:03;;;;;;;;;;;;;;;15.13;100.00;101325.09;5034585;28;20015;-73
2023/10/11 07:24:33;;;;;;;;;;;;;;;15.26;100.00;101328.41;5050922;28;19921;-73
2023/10/11 07:26:59;;;;;;;;;;;;;;;15.40;100.00;101332.56;5050319;28;20021;-74
2023/10/11 07:29:33;;;;;;;;;;;;;;;15.54;100.00;101331.31;5054163;28;19924;-74
2023/10/11 07:31:59;;;;;;;;;;;;;;;15.66;100.00;101342.03;5033233;28;19960;-74
2023/10/11 07:34:25;;;;;;;;;;;;;;;15.75;100.00;101331.19;5035120;28;19990;-73
2023/10/11 07:36:50;;;;;;;;;;;;;;;15.75;100.00;101339.31;5049834;28;19982;-72
2023/10/11 07:41:51;;;;;;;;;;;;;;;15.85;100.00;101333.06;5027773;28;19928;-75
2023/10/11 07:44:18;;;;;;;;;;;;;;;15.80;100.00;101322.63;5029648;28;19997;-74
2023/10/11 07:46:43;;;;;;;;;;;;;;;15.91;100.00;101324.38;5030513;28;19920;-75
2023/10/11 07:49:14;;;;;;;;;;;;;;;15.82;100.00;101312.53;5045685;28;19932;-74
2023/10/11 07:51:39;;;;;;;;;;;;;;;15.83;100.00;101314.25;5035372;28;19920;-75
2023/10/11 07:54:07;;;;;;;;;;;;;;;15.96;100.00;101313.97;5043733;28;20023;-74
2023/10/11 07:56:38;;;;;;;;;;;;;;;16.17;100.00;101323.78;5045760;28;19928;-73
2023/10/11 07:59:07;;;;;;;;;;;;;;;16.15;100.00;101326.66;5049628;28;19989;-74
2023/10/11 08:01:42;;;;;;;;;;;;;;;16.27;100.00;101324.66;5047287;28;20370;-74
2023/10/11 08:04:08;;;;;;;;;;;;;;;16.34;100.00;101316.78;5046942;28;20338;-74
2023/10/11 08:06:37;;;;;;;;;;;;;;;16.53;100.00;101325.88;5041198;28;20426;-73
2023/10/11 08:09:03;;;;;;;;;;;;;;;16.61;100.00;101324.16;5027537;28;19974;-75
2023/10/11 08:11:36;;;;;;;;;;;;;;;16.61;100.00;101328.69;5014092;28;19962;-72
2023/10/11 08:14:02;;;;;;;;;;;;;;;16.58;100.00;101331.69;5043823;28;19921;-73
2023/10/11 08:16:32;;;;;;;;;;;;;;;16.47;100.00;101328.19;5051633;28;19924;-72
2023/10/11 08:18:58;;;;;;;;;;;;;;;16.43;100.00;101329.47;5016982;28;19952;-76
2023/10/11 08:21:23;;;;;;;;;;;;;;;16.49;100.00;101326.19;5048489;28;20944;-73
2023/10/11 08:23:50;;;;;;;;;;;;;;;16.44;100.00;101303.19;5048540;28;20388;-74
2023/10/11 08:26:16;;;;;;;;;;;;;;;16.60;100.00;101319.72;5045645;28;19912;-75
2023/10/11 08:28:51;;;;;;;;;;;;;;;16.81;100.00;101332.19;5031468;28;19925;-73
2023/10/11 08:31:35;;;;;;;;;;;;;;;16.86;100.00;101327.19;5052547;28;20030;-73
2023/10/11 08:34:00;;;;;;;;;;;;;;;16.90;100.00;101338.59;5049418;28;19975;-73
2023/10/11 08:36:29;;;;;;;;;;;;;;;17.00;100.00;101320.47;5025776;28;19971;-73
2023/10/11 08:38:55;;;;;;;;;;;;;;;17.04;100.00;101330.00;5018288;28;20021;-74
2023/10/11 08:41:22;;;;;;;;;;;;;;;17.04;100.00;101327.28;5034104;28;19916;-75
2023/10/11 08:43:49;;;;;;;;;;;;;;;17.27;100.00;101343.16;5008487;28;19928;-75
2023/10/11 08:46:17;;;;;;;;;;;;;;;17.50;100.00;101342.72;5030584;28;19920;-73
2023/10/11 08:48:42;;;;;;;;;;;;;;;17.90;100.00;101340.59;5033337;28;20374;-72
2023/10/11 08:51:11;;;;;;;;;;;;;;;17.86;100.00;101340.06;5032516;28;19927;-73
2023/10/11 08:53:46;;;;;;;;;;;;;;;18.13;100.00;101338.28;5031986;28;19920;-72
2023/10/11 08:56:14;;;;;;;;;;;;;;;18.17;100.00;101341.53;5032948;28;20007;-72
2023/10/11 08:58:40;;;;;;;;;;;;;;;17.96;100.00;101346.25;5051926;28;20588;-72
2023/10/11 09:01:05;;;;;;;;;;;;;;;17.82;100.00;101361.22;5031372;28;20358;-75
2023/10/11 09:03:31;;;;;;;;;;;;;;;17.78;100.00;101364.41;5032755;28;19932;-73
2023/10/11 09:05:59;;;;;;;;;;;;;;;17.78;100.00;101378.00;5049649;28;20006;-77
2023/10/11 09:08:31;;;;;;;;;;;;;;;17.73;100.00;101383.88;5013982;28;19975;-74
2023/10/11 09:11:05;;;;;;;;;;;;;;;17.66;100.00;101389.06;5018766;28;19931;-74
2023/10/11 09:13:36;;;;;;;;;;;;;;;17.49;100.00;101385.28;5053214;28;20394;-75
2023/10/11 09:16:04;;;;;;;;;;;;;;;17.48;100.00;101391.72;5021431;28;19927;-73
2023/10/11 09:18:34;;;;;;;;;;;;;;;17.44;100.00;101370.47;5039415;28;19939;-73
2023/10/11 09:21:08;;;;;;;;;;;;;;;17.53;100.00;101375.84;5052130;28;20009;-74
2023/10/11 09:23:34;;;;;;;;;;;;;;;17.68;100.00;101380.78;5028446;28;19935;-74
2023/10/11 09:26:00;;;;;;;;;;;;;;;17.61;100.00;101380.50;5036602;28;20269;-74
2023/10/11 09:28:26;;;;;;;;;;;;;;;17.43;100.00;101376.91;5052726;28;20497;-73
2023/10/11 09:31:11;;;;;;;;;;;;;;;17.37;100.00;101368.38;5035659;28;20491;-76
2023/10/11 09:33:40;;;;;;;;;;;;;;;17.35;100.00;101370.38;5036750;28;19923;-74
2023/10/11 09:36:06;;;;;;;;;;;;;;;17.30;100.00;101380.84;5036530;28;20086;-75
2023/10/11 09:38:38;;;;;;;;;;;;;;;17.26;100.00;101373.16;5036017;28;20489;-74
2023/10/11 09:41:07;;;;;;;;;;;;;;;17.30;100.00;101372.72;5051145;28;19987;-73
2023/10/11 09:43:32;;;;;;;;;;;;;;;17.23;100.00;101383.28;5035601;28;19921;-78
2023/10/11 09:45:57;;;;;;;;;;;;;;;17.24;100.00;101387.72;5018699;28;19967;-76
2023/10/11 09:48:23;;;;;;;;;;;;;;;17.11;100.00;101379.09;5036304;28;19928;-71
2023/10/11 09:50:48;;;;;;;;;;;;;;;17.17;100.00;101383.03;5036155;28;20202;-73
2023/10/11 09:53:13;;;;;;;;;;;;;;;16.94;100.00;101384.25;5033593;28;20346;-72
2023/10/11 09:55:59;;;;;;;;;;;;;;;16.98;100.00;101390.28;5027088;28;20417;-73
2023/10/11 09:58:33;;;;;;;;;;;;;;;16.74;100.00;101355.47;5027789;28;19920;-72
2023/10/11 10:01:06;;;;;;;;;;;;;;;16.72;100.00;101371.03;5043718;28;19924;-71
2023/10/11 10:03:31;;;;;;;;;;;;;;;16.78;100.00;101370.44;5034632;28;20164;-74
2023/10/11 10:06:06;;;;;;;;;;;;;;;16.77;100.00;101379.59;5034991;28;20417;-71
2023/10/11 10:08:32;;;;;;;;;;;;;;;16.84;100.00;101383.44;5033565;28;19924;-73
2023/10/11 10:10:57;;;;;;;;;;;;;;;16.87;100.00;101384.97;5028945;28;19931;-72
2023/10/11 10:13:24;;;;;;;;;;;;;;;16.96;100.00;101389.56;5031308;28;19920;-72
2023/10/11 10:15:52;;;;;;;;;;;;;;;16.83;100.00;101384.44;5028294;28;19925;-72
2023/10/11 10:18:19;;;;;;;;;;;;;;;16.87;100.00;101395.81;5050298;28;20185;-73
2023/10/11 10:20:44;;;;;;;;;;;;;;;16.92;100.00;101399.81;5031923;28;19927;-73
2023/10/11 10:23:16;;;;;;;;;;;;;;;16.94;100.00;101391.53;5016162;28;19924;-71
2023/10/11 10:25:48;;;;;;;;;;;;;;;16.96;100.00;101392.28;5048303;28;19928;-73
2023/10/11 10:28:34;;;;;;;;;;;;;;;17.02;100.00;101388.09;5047451;28;20028;-72
2023/10/11 10:31:33;;;;;;;;;;;;;;;17.06;100.00;101381.38;5050534;28;20478;-72
2023/10/11 10:34:04;;;;;;;;;;;;;;;17.07;100.00;101400.25;5034283;28;19962;-74
2023/10/11 10:36:31;;;;;;;;;;;;;;;17.05;100.00;101402.25;5032336;28;20251;-73
2023/10/11 10:41:37;;;;;;;;;;;;;;;17.11;100.00;101414.34;5049632;28;20034;-71
2023/10/11 10:44:03;;;;;;;;;;;;;;;17.11;100.00;101408.06;5032106;28;20107;-71
2023/10/11 10:46:28;;;;;;;;;;;;;;;17.08;100.00;101407.34;5031183;28;20252;-73
2023/10/11 10:48:55;;;;;;;;;;;;;;;17.04;100.00;101411.38;5034615;28;19964;-72
2023/10/11 10:51:20;;;;;;;;;;;;;;;16.98;100.00;101419.22;5032431;28;19924;-71
2023/10/11 10:53:50;;;;;;;;;;;;;;;17.09;100.00;101421.78;5030622;28;19955;-74
2023/10/11 10:56:19;;;;;;;;;;;;;;;17.12;100.00;101423.31;5011867;28;20264;-71
2023/10/11 10:58:44;;;;;;;;;;;;;;;17.18;100.00;101418.19;5050132;28;19920;-73
2023/10/11 11:01:10;;;;;;;;;;;;;;;17.05;100.00;101413.09;5032104;28;19955;-72
2023/10/11 11:03:35;;;;;;;;;;;;;;;16.99;100.00;101418.22;5049790;28;20023;-73
2023/10/11 11:06:02;;;;;;;;;;;;;;;17.14;100.00;101415.91;5051251;28;19968;-71
2023/10/11 11:08:28;;;;;;;;;;;;;;;17.18;100.00;101411.88;5031103;28;19962;-72
2023/10/11 11:11:00;;;;;;;;;;;;;;;17.30;100.00;101402.56;5035118;28;20003;-72
2023/10/11 11:13:27;;;;;;;;;;;;;;;17.29;100.00;101398.13;5032870;28;19990;-72
2023/10/11 11:15:55;;;;;;;;;;;;;;;17.36;100.00;101388.38;5031674;28;19963;-71
2023/10/11 11:18:33;;;;;;;;;;;;;;;17.24;100.00;101395.03;5035869;28;20027;-71
2023/10/11 11:21:17;;;;;;;;;;;;;;;17.16;100.00;101381.34;5031129;28;19916;-74
2023/10/11 11:23:44;;;;;;;;;;;;;;;17.18;100.00;101387.47;5036392;28;20018;-71
2023/10/11 11:26:15;;;;;;;;;;;;;;;17.27;100.00;101392.00;5017172;28;20408;-70
2023/10/11 11:28:44;;;;;;;;;;;;;;;17.37;100.00;101384.66;5035622;28;19921;-71
2023/10/11 11:31:30;;;;;;;;;;;;;;;17.43;100.00;101377.78;5050854;28;20462;-70
2023/10/11 11:34:12;;;;;;;;;;;;;;;17.35;100.00;101367.66;5053982;28;20095;-70
2023/10/11 11:36:40;;;;;;;;;;;;;;;17.14;100.00;101373.34;5030710;28;20705;-73
2023/10/11 11:40:18;;;;;;;;;;;;;;;17.20;100.00;101356.50;5045870;28;19916;-70
2023/10/11 11:42:00;;;;;;;;;;;;;;;17.12;100.00;101355.50;5009339;28;19921;-72
2023/10/11 11:44:27;;;;;;;;;;;;;;;16.92;100.00;101333.88;5052157;28;20262;-75
2023/10/11 11:46:53;;;;;;;;;;;;;;;17.06;100.00;101341.56;5029092;28;19924;-72
2023/10/11 11:49:22;;;;;;;;;;;;;;;17.12;100.00;101342.81;5031606;28;19930;-71
2023/10/11 11:51:51;;;;;;;;;;;;;;;17.11;100.00;101346.53;5047188;28;19916;-73
2023/10/11 11:54:20;;;;;;;;;;;;;;;17.04;100.00;101330.00;5050199;28;19968;-74
2023/10/11 11:56:45;;;;;;;;;;;;;;;17.23;100.00;101312.75;5030318;28;19931;-75
2023/10/11 11:59:17;;;;;;;;;;;;;;;17.42;100.00;101310.06;5026142;28;19936;-74
2023/10/11 12:01:52;;;;;;;;;;;;;;;17.52;100.00;101314.41;5020052;28;20132;-71
2023/10/11 12:04:22;;;;;;;;;;;;;;;17.39;100.00;101322.94;5026342;28;19927;-72
2023/10/11 12:06:50;;;;;;;;;;;;;;;17.40;100.00;101326.50;5050649;28;19966;-71
2023/10/11 12:09:21;;;;;;;;;;;;;;;17.17;100.00;101305.22;5029752;28;20304;-71
2023/10/11 12:11:49;;;;;;;;;;;;;;;17.14;100.00;101310.09;5036651;28;19921;-72
2023/10/11 12:14:15;;;;;;;;;;;;;;;17.19;100.00;101315.91;5049455;28;19925;-71
2023/10/11 12:16:42;;;;;;;;;;;;;;;17.16;100.00;101313.50;5050687;28;19957;-71
2023/10/11 12:19:11;;;;;;;;;;;;;;;17.19;100.00;101308.66;5029802;28;20404;-73
2023/10/11 12:21:36;;;;;;;;;;;;;;;17.31;100.00;101313.84;5051755;28;19927;-73
2023/10/11 12:24:10;;;;;;;;;;;;;;;17.30;100.00;101314.84;5035394;28;19921;-72
2023/10/11 12:26:35;;;;;;;;;;;;;;;17.24;100.00;101324.47;5041217;28;19924;-73
2023/10/11 12:29:04;;;;;;;;;;;;;;;17.32;100.00;101319.16;5036189;28;19936;-72
2023/10/11 12:31:29;;;;;;;;;;;;;;;17.29;100.00;101322.16;5037599;28;20270;-73
2023/10/11 12:33:54;;;;;;;;;;;;;;;17.38;100.00;101314.97;5036224;28;19971;-72
2023/10/11 12:36:20;;;;;;;;;;;;;;;17.53;100.00;101312.56;5036871;28;20011;-72
2023/10/11 12:38:47;;;;;;;;;;;;;;;17.65;100.00;101302.34;5034634;28;19916;-72
2023/10/11 12:41:15;;;;;;;;;;;;;;;17.56;100.00;101298.69;5052298;28;20567;-76
2023/10/11 12:43:40;;;;;;;;;;;;;;;17.51;100.00;101307.28;5055510;28;20389;-74
2023/10/11 12:46:05;;;;;;;;;;;;;;;17.58;100.00;101295.81;5050255;28;19929;-74
2023/10/11 12:48:31;;;;;;;;;;;;;;;17.66;100.00;101293.19;5049257;28;20390;-73
2023/10/11 12:50:59;;;;;;;;;;;;;;;17.83;100.00;101286.03;5032971;28;20506;-71
2023/10/11 12:53:29;;;;;;;;;;;;;;;17.77;100.00;101297.53;5033051;28;19920;-73
2023/10/11 12:55:54;;;;;;;;;;;;;;;18.23;100.00;101284.66;5048868;28;19924;-75
2023/10/11 12:58:19;;;;;;;;;;;;;;;18.26;100.00;101280.81;5031090;28;19971;-74
2023/10/11 13:00:48;;;;;;;;;;;;;;;18.36;100.00;101270.66;5044503;28;20015;-73
2023/10/11 13:03:26;;;;;;;;;;;;;;;18.80;100.00;101268.84;5019828;28;20483;-75
2023/10/11 13:05:52;;;;;;;;;;;;;;;18.77;100.00;101261.03;5031247;28;20366;-74
2023/10/11 13:08:17;;;;;;;;;;;;;;;18.53;100.00;101247.13;5033238;28;19924;-75
2023/10/11 13:10:46;;;;;;;;;;;;;;;18.87;100.00;101259.88;5031193;28;20370;-72
2023/10/11 13:13:14;;;;;;;;;;;;;;;19.40;100.00;101273.31;5028196;28;19920;-74
2023/10/11 13:15:41;;;;;;;;;;;;;;;20.19;100.00;101272.00;5032130;28;19963;-71
2023/10/11 13:18:09;;;;;;;;;;;;;;;21.00;100.00;101276.56;5048048;28;19925;-72
2023/10/11 13:20:35;;;;;;;;;;;;;;;21.32;100.00;101277.41;5051416;28;19932;-72
2023/10/11 13:23:01;;;;;;;;;;;;;;;22.09;100.00;101271.03;5033882;28;20367;-73